sensor_id;sensor_type;location;lat;lon;timestamp;P1;durP1;ratioP1;P2;durP2;ratioP2
31347;SDS011;21711;49.708;18.568;2022-08-19T00:02:12;13.80;;;10.13;;
31347;SDS011;21711;49.708;18.568;2022-08-19T00:04:39;12.93;;;8.57;;
31347;SDS011;21711;49.708;18.568;2022-08-19T00:07:07;13.35;;;9.52;;
31347;SDS011;21711;49.708;18.568;2022-08-19T00:09:34;12.10;;;9.70;;
31347;SDS011;21711;49.708;18.568;2022-08-19T00:12:02;12.43;;;9.57;;
31347;SDS011;21711;49.708;18.568;2022-08-19T00:14:30;13.20;;;10.35;;
31347;SDS011;21711;49.708;18.568;2022-08-19T00:16:58;15.25;;;10.52;;
31347;SDS011;21711;49.708;18.568;2022-08-19T00:19:27;17.85;;;10.73;;
31347;SDS011;21711;49.708;18.568;2022-08-19T00:21:55;16.50;;;9.80;;
31347;SDS011;21711;49.708;18.568;2022-08-19T00:24:22;16.58;;;9.63;;
31347;SDS011;21711;49.708;18.568;2022-08-19T00:26:51;19.38;;;11.07;;
31347;SDS011;21711;49.708;18.568;2022-08-19T00:29:19;20.23;;;9.38;;
31347;SDS011;21711;49.708;18.568;2022-08-19T00:31:48;20.95;;;11.55;;
31347;SDS011;21711;49.708;18.568;2022-08-19T00:34:19;19.98;;;10.63;;
31347;SDS011;21711;49.708;18.568;2022-08-19T00:36:48;14.90;;;10.35;;
31347;SDS011;21711;49.708;18.568;2022-08-19T00:39:16;24.45;;;10.30;;
31347;SDS011;21711;49.708;18.568;2022-08-19T00:41:44;13.77;;;10.00;;
31347;SDS011;21711;49.708;18.568;2022-08-19T00:44:19;13.82;;;9.77;;
31347;SDS011;21711;49.708;18.568;2022-08-19T00:46:55;13.27;;;10.32;;
31347;SDS011;21711;49.708;18.568;2022-08-19T00:49:36;13.43;;;9.55;;
31347;SDS011;21711;49.708;18.568;2022-08-19T00:52:22;12.93;;;9.10;;
31347;SDS011;21711;49.708;18.568;2022-08-19T00:54:59;12.02;;;9.02;;
31347;SDS011;21711;49.708;18.568;2022-08-19T00:57:34;13.48;;;9.68;;
31347;SDS011;21711;49.708;18.568;2022-08-19T01:00:08;15.27;;;9.35;;
31347;SDS011;21711;49.708;18.568;2022-08-19T01:02:40;13.20;;;9.43;;
31347;SDS011;21711;49.708;18.568;2022-08-19T01:05:09;10.17;;;7.77;;
31347;SDS011;21711;49.708;18.568;2022-08-19T01:07:42;13.15;;;9.32;;
31347;SDS011;21711;49.708;18.568;2022-08-19T01:10:11;15.20;;;8.57;;
31347;SDS011;21711;49.708;18.568;2022-08-19T01:12:53;12.18;;;8.93;;
31347;SDS011;21711;49.708;18.568;2022-08-19T01:15:26;13.07;;;8.60;;
31347;SDS011;21711;49.708;18.568;2022-08-19T01:17:59;12.57;;;9.50;;
31347;SDS011;21711;49.708;18.568;2022-08-19T01:20:32;16.27;;;9.82;;
31347;SDS011;21711;49.708;18.568;2022-08-19T01:23:01;15.73;;;10.02;;
31347;SDS011;21711;49.708;18.568;2022-08-19T01:25:32;12.30;;;9.05;;
31347;SDS011;21711;49.708;18.568;2022-08-19T01:28:18;12.70;;;9.55;;
31347;SDS011;21711;49.708;18.568;2022-08-19T01:31:06;17.92;;;9.48;;
31347;SDS011;21711;49.708;18.568;2022-08-19T01:33:54;11.60;;;9.43;;
31347;SDS011;21711;49.708;18.568;2022-08-19T01:36:25;15.32;;;9.43;;
31347;SDS011;21711;49.708;18.568;2022-08-19T01:38:58;15.35;;;10.35;;
31347;SDS011;21711;49.708;18.568;2022-08-19T01:41:31;13.63;;;9.10;;
31347;SDS011;21711;49.708;18.568;2022-08-19T01:44:00;13.38;;;9.90;;
31347;SDS011;21711;49.708;18.568;2022-08-19T01:46:44;14.82;;;10.80;;
31347;SDS011;21711;49.708;18.568;2022-08-19T01:51:43;17.92;;;10.30;;
31347;SDS011;21711;49.708;18.568;2022-08-19T01:54:12;15.15;;;10.07;;
31347;SDS011;21711;49.708;18.568;2022-08-19T01:56:54;15.20;;;9.77;;
31347;SDS011;21711;49.708;18.568;2022-08-19T01:59:37;19.02;;;10.00;;
31347;SDS011;21711;49.708;18.568;2022-08-19T02:02:06;13.50;;;9.32;;
31347;SDS011;21711;49.708;18.568;2022-08-19T02:04:34;14.15;;;9.80;;
31347;SDS011;21711;49.708;18.568;2022-08-19T02:07:04;19.52;;;9.20;;
31347;SDS011;21711;49.708;18.568;2022-08-19T02:09:35;16.20;;;9.13;;
31347;SDS011;21711;49.708;18.568;2022-08-19T02:12:03;17.05;;;9.30;;
31347;SDS011;21711;49.708;18.568;2022-08-19T02:14:34;14.27;;;9.45;;
31347;SDS011;21711;49.708;18.568;2022-08-19T02:17:02;17.95;;;8.95;;
31347;SDS011;21711;49.708;18.568;2022-08-19T02:19:30;22.02;;;9.57;;
31347;SDS011;21711;49.708;18.568;2022-08-19T02:21:59;20.10;;;9.93;;
31347;SDS011;21711;49.708;18.568;2022-08-19T02:24:27;21.08;;;9.65;;
31347;SDS011;21711;49.708;18.568;2022-08-19T02:26:54;15.98;;;8.68;;
31347;SDS011;21711;49.708;18.568;2022-08-19T02:29:22;15.25;;;8.02;;
31347;SDS011;21711;49.708;18.568;2022-08-19T02:31:49;13.52;;;8.00;;
31347;SDS011;21711;49.708;18.568;2022-08-19T02:34:17;13.30;;;7.65;;
31347;SDS011;21711;49.708;18.568;2022-08-19T02:36:45;9.05;;;7.60;;
31347;SDS011;21711;49.708;18.568;2022-08-19T02:39:17;8.93;;;6.97;;
31347;SDS011;21711;49.708;18.568;2022-08-19T02:41:45;8.45;;;7.15;;
31347;SDS011;21711;49.708;18.568;2022-08-19T02:44:12;9.98;;;7.57;;
31347;SDS011;21711;49.708;18.568;2022-08-19T02:46:56;11.23;;;7.13;;
31347;SDS011;21711;49.708;18.568;2022-08-19T02:49:24;13.10;;;7.03;;
31347;SDS011;21711;49.708;18.568;2022-08-19T02:51:51;8.32;;;6.80;;
31347;SDS011;21711;49.708;18.568;2022-08-19T02:54:19;14.68;;;7.05;;
31347;SDS011;21711;49.708;18.568;2022-08-19T02:56:46;9.48;;;6.82;;
31347;SDS011;21711;49.708;18.568;2022-08-19T02:59:13;10.00;;;7.35;;
31347;SDS011;21711;49.708;18.568;2022-08-19T03:01:41;14.40;;;7.97;;
31347;SDS011;21711;49.708;18.568;2022-08-19T03:04:10;9.15;;;7.18;;
31347;SDS011;21711;49.708;18.568;2022-08-19T03:06:41;9.13;;;7.28;;
31347;SDS011;21711;49.708;18.568;2022-08-19T03:09:13;9.93;;;7.70;;
31347;SDS011;21711;49.708;18.568;2022-08-19T03:11:41;9.85;;;7.20;;
31347;SDS011;21711;49.708;18.568;2022-08-19T03:14:09;12.80;;;6.97;;
31347;SDS011;21711;49.708;18.568;2022-08-19T03:16:42;12.20;;;7.05;;
31347;SDS011;21711;49.708;18.568;2022-08-19T03:19:19;9.80;;;6.75;;
31347;SDS011;21711;49.708;18.568;2022-08-19T03:21:48;13.30;;;7.60;;
31347;SDS011;21711;49.708;18.568;2022-08-19T03:24:17;12.43;;;7.40;;
31347;SDS011;21711;49.708;18.568;2022-08-19T03:26:47;11.88;;;7.43;;
31347;SDS011;21711;49.708;18.568;2022-08-19T03:29:18;12.05;;;7.75;;
31347;SDS011;21711;49.708;18.568;2022-08-19T03:31:56;9.93;;;7.40;;
31347;SDS011;21711;49.708;18.568;2022-08-19T03:34:30;14.05;;;6.82;;
31347;SDS011;21711;49.708;18.568;2022-08-19T03:37:03;10.48;;;7.22;;
31347;SDS011;21711;49.708;18.568;2022-08-19T03:39:38;9.40;;;7.20;;
31347;SDS011;21711;49.708;18.568;2022-08-19T03:42:09;11.05;;;7.50;;
31347;SDS011;21711;49.708;18.568;2022-08-19T03:44:57;11.98;;;7.55;;
31347;SDS011;21711;49.708;18.568;2022-08-19T03:47:25;19.55;;;8.13;;
31347;SDS011;21711;49.708;18.568;2022-08-19T03:49:52;10.77;;;7.40;;
31347;SDS011;21711;49.708;18.568;2022-08-19T03:52:19;11.13;;;7.72;;
31347;SDS011;21711;49.708;18.568;2022-08-19T03:54:47;11.43;;;7.72;;
31347;SDS011;21711;49.708;18.568;2022-08-19T03:57:14;16.52;;;7.68;;
31347;SDS011;21711;49.708;18.568;2022-08-19T03:59:41;13.25;;;8.52;;
31347;SDS011;21711;49.708;18.568;2022-08-19T04:02:10;11.63;;;7.88;;
31347;SDS011;21711;49.708;18.568;2022-08-19T04:04:40;10.33;;;8.03;;
31347;SDS011;21711;49.708;18.568;2022-08-19T04:07:10;10.40;;;7.45;;
31347;SDS011;21711;49.708;18.568;2022-08-19T04:09:42;10.35;;;7.50;;
31347;SDS011;21711;49.708;18.568;2022-08-19T04:12:10;13.07;;;7.82;;
31347;SDS011;21711;49.708;18.568;2022-08-19T04:14:37;15.18;;;8.10;;
31347;SDS011;21711;49.708;18.568;2022-08-19T04:17:05;24.02;;;7.68;;
31347;SDS011;21711;49.708;18.568;2022-08-19T04:19:34;10.82;;;7.82;;
31347;SDS011;21711;49.708;18.568;2022-08-19T04:22:02;11.88;;;7.65;;
31347;SDS011;21711;49.708;18.568;2022-08-19T04:24:30;15.63;;;7.47;;
31347;SDS011;21711;49.708;18.568;2022-08-19T04:26:59;14.10;;;8.15;;
31347;SDS011;21711;49.708;18.568;2022-08-19T04:29:28;15.07;;;9.25;;
31347;SDS011;21711;49.708;18.568;2022-08-19T04:31:56;12.05;;;7.10;;
31347;SDS011;21711;49.708;18.568;2022-08-19T04:34:34;12.63;;;7.70;;
31347;SDS011;21711;49.708;18.568;2022-08-19T04:37:22;14.40;;;7.68;;
31347;SDS011;21711;49.708;18.568;2022-08-19T04:39:51;11.48;;;7.70;;
31347;SDS011;21711;49.708;18.568;2022-08-19T04:42:37;10.15;;;7.32;;
31347;SDS011;21711;49.708;18.568;2022-08-19T04:45:07;10.55;;;7.30;;
31347;SDS011;21711;49.708;18.568;2022-08-19T04:47:43;15.07;;;7.05;;
31347;SDS011;21711;49.708;18.568;2022-08-19T04:50:24;15.98;;;8.85;;
31347;SDS011;21711;49.708;18.568;2022-08-19T04:52:54;12.55;;;7.70;;
31347;SDS011;21711;49.708;18.568;2022-08-19T04:55:23;9.55;;;7.80;;
31347;SDS011;21711;49.708;18.568;2022-08-19T04:57:54;12.05;;;8.68;;
31347;SDS011;21711;49.708;18.568;2022-08-19T05:00:21;15.38;;;8.23;;
31347;SDS011;21711;49.708;18.568;2022-08-19T05:02:49;12.15;;;7.57;;
31347;SDS011;21711;49.708;18.568;2022-08-19T05:05:17;22.10;;;8.45;;
31347;SDS011;21711;49.708;18.568;2022-08-19T05:07:46;9.65;;;7.60;;
31347;SDS011;21711;49.708;18.568;2022-08-19T05:10:14;26.98;;;8.13;;
31347;SDS011;21711;49.708;18.568;2022-08-19T05:12:41;9.75;;;7.50;;
31347;SDS011;21711;49.708;18.568;2022-08-19T05:15:09;11.90;;;7.30;;
31347;SDS011;21711;49.708;18.568;2022-08-19T05:17:37;11.13;;;7.50;;
31347;SDS011;21711;49.708;18.568;2022-08-19T05:20:24;13.27;;;7.85;;
31347;SDS011;21711;49.708;18.568;2022-08-19T05:23:11;11.43;;;8.38;;
31347;SDS011;21711;49.708;18.568;2022-08-19T05:25:48;12.18;;;8.02;;
31347;SDS011;21711;49.708;18.568;2022-08-19T05:28:19;14.80;;;7.68;;
31347;SDS011;21711;49.708;18.568;2022-08-19T05:30:47;15.05;;;7.60;;
31347;SDS011;21711;49.708;18.568;2022-08-19T05:33:17;9.98;;;6.75;;
31347;SDS011;21711;49.708;18.568;2022-08-19T05:35:45;10.30;;;7.75;;
31347;SDS011;21711;49.708;18.568;2022-08-19T05:38:12;10.38;;;6.70;;
31347;SDS011;21711;49.708;18.568;2022-08-19T05:40:39;8.65;;;6.70;;
31347;SDS011;21711;49.708;18.568;2022-08-19T05:43:07;10.35;;;7.95;;
31347;SDS011;21711;49.708;18.568;2022-08-19T05:45:39;9.38;;;7.38;;
31347;SDS011;21711;49.708;18.568;2022-08-19T05:48:09;11.43;;;7.85;;
31347;SDS011;21711;49.708;18.568;2022-08-19T05:50:38;14.40;;;8.05;;
31347;SDS011;21711;49.708;18.568;2022-08-19T05:53:07;8.55;;;6.90;;
31347;SDS011;21711;49.708;18.568;2022-08-19T05:55:35;12.23;;;7.43;;
31347;SDS011;21711;49.708;18.568;2022-08-19T05:58:04;14.05;;;7.38;;
31347;SDS011;21711;49.708;18.568;2022-08-19T06:00:34;10.38;;;7.10;;
31347;SDS011;21711;49.708;18.568;2022-08-19T06:03:03;12.25;;;7.43;;
31347;SDS011;21711;49.708;18.568;2022-08-19T06:05:38;14.57;;;7.50;;
31347;SDS011;21711;49.708;18.568;2022-08-19T06:08:17;13.75;;;7.35;;
31347;SDS011;21711;49.708;18.568;2022-08-19T06:10:45;11.18;;;7.40;;
31347;SDS011;21711;49.708;18.568;2022-08-19T06:13:12;9.85;;;7.10;;
31347;SDS011;21711;49.708;18.568;2022-08-19T06:15:39;11.68;;;7.05;;
31347;SDS011;21711;49.708;18.568;2022-08-19T06:18:10;9.00;;;6.88;;
31347;SDS011;21711;49.708;18.568;2022-08-19T06:20:38;10.77;;;7.90;;
31347;SDS011;21711;49.708;18.568;2022-08-19T06:23:21;9.40;;;7.30;;
31347;SDS011;21711;49.708;18.568;2022-08-19T06:25:49;7.68;;;6.93;;
31347;SDS011;21711;49.708;18.568;2022-08-19T06:28:17;8.73;;;7.20;;
31347;SDS011;21711;49.708;18.568;2022-08-19T06:30:44;9.57;;;7.28;;
31347;SDS011;21711;49.708;18.568;2022-08-19T06:33:12;11.88;;;6.97;;
31347;SDS011;21711;49.708;18.568;2022-08-19T06:35:39;11.90;;;7.30;;
31347;SDS011;21711;49.708;18.568;2022-08-19T06:38:08;12.55;;;6.85;;
31347;SDS011;21711;49.708;18.568;2022-08-19T06:40:36;17.58;;;8.57;;
31347;SDS011;21711;49.708;18.568;2022-08-19T06:43:04;10.47;;;7.97;;
31347;SDS011;21711;49.708;18.568;2022-08-19T06:45:36;11.80;;;7.38;;
31347;SDS011;21711;49.708;18.568;2022-08-19T06:48:05;11.13;;;7.03;;
31347;SDS011;21711;49.708;18.568;2022-08-19T06:50:33;10.98;;;7.25;;
31347;SDS011;21711;49.708;18.568;2022-08-19T06:53:05;8.73;;;6.93;;
31347;SDS011;21711;49.708;18.568;2022-08-19T06:55:32;12.88;;;7.68;;
31347;SDS011;21711;49.708;18.568;2022-08-19T06:58:02;15.38;;;7.90;;
31347;SDS011;21711;49.708;18.568;2022-08-19T07:00:31;8.98;;;6.93;;
31347;SDS011;21711;49.708;18.568;2022-08-19T07:02:59;9.88;;;7.30;;
31347;SDS011;21711;49.708;18.568;2022-08-19T07:05:37;8.80;;;6.85;;
31347;SDS011;21711;49.708;18.568;2022-08-19T07:08:12;10.77;;;8.13;;
31347;SDS011;21711;49.708;18.568;2022-08-19T07:10:44;11.77;;;7.30;;
31347;SDS011;21711;49.708;18.568;2022-08-19T07:13:13;10.43;;;7.32;;
31347;SDS011;21711;49.708;18.568;2022-08-19T07:15:40;10.35;;;7.18;;
31347;SDS011;21711;49.708;18.568;2022-08-19T07:18:08;10.45;;;7.13;;
31347;SDS011;21711;49.708;18.568;2022-08-19T07:20:37;13.57;;;9.05;;
31347;SDS011;21711;49.708;18.568;2022-08-19T07:23:07;12.88;;;8.02;;
31347;SDS011;21711;49.708;18.568;2022-08-19T07:25:41;8.52;;;7.60;;
31347;SDS011;21711;49.708;18.568;2022-08-19T07:28:09;9.57;;;7.93;;
31347;SDS011;21711;49.708;18.568;2022-08-19T07:30:50;18.40;;;7.85;;
31347;SDS011;21711;49.708;18.568;2022-08-19T07:33:18;14.15;;;8.38;;
31347;SDS011;21711;49.708;18.568;2022-08-19T07:35:47;11.48;;;8.40;;
31347;SDS011;21711;49.708;18.568;2022-08-19T07:38:15;10.88;;;8.25;;
31347;SDS011;21711;49.708;18.568;2022-08-19T07:40:43;12.50;;;9.25;;
31347;SDS011;21711;49.708;18.568;2022-08-19T07:43:12;15.20;;;8.07;;
31347;SDS011;21711;49.708;18.568;2022-08-19T07:45:43;9.55;;;8.25;;
31347;SDS011;21711;49.708;18.568;2022-08-19T07:48:11;11.73;;;8.18;;
31347;SDS011;21711;49.708;18.568;2022-08-19T07:50:39;11.68;;;7.70;;
31347;SDS011;21711;49.708;18.568;2022-08-19T07:53:07;12.23;;;8.38;;
31347;SDS011;21711;49.708;18.568;2022-08-19T07:55:34;11.88;;;8.10;;
31347;SDS011;21711;49.708;18.568;2022-08-19T07:58:09;15.27;;;7.88;;
31347;SDS011;21711;49.708;18.568;2022-08-19T08:00:43;22.88;;;9.18;;
31347;SDS011;21711;49.708;18.568;2022-08-19T08:03:12;10.70;;;7.55;;
31347;SDS011;21711;49.708;18.568;2022-08-19T08:05:42;16.00;;;7.68;;
31347;SDS011;21711;49.708;18.568;2022-08-19T08:08:28;19.85;;;8.02;;
31347;SDS011;21711;49.708;18.568;2022-08-19T08:11:19;15.07;;;6.63;;
31347;SDS011;21711;49.708;18.568;2022-08-19T08:13:49;13.13;;;7.35;;
31347;SDS011;21711;49.708;18.568;2022-08-19T08:16:30;15.50;;;8.10;;
31347;SDS011;21711;49.708;18.568;2022-08-19T08:19:13;15.05;;;7.70;;
31347;SDS011;21711;49.708;18.568;2022-08-19T08:21:51;8.65;;;7.60;;
31347;SDS011;21711;49.708;18.568;2022-08-19T08:24:21;9.18;;;6.90;;
31347;SDS011;21711;49.708;18.568;2022-08-19T08:26:54;11.15;;;7.65;;
31347;SDS011;21711;49.708;18.568;2022-08-19T08:29:23;10.13;;;7.03;;
31347;SDS011;21711;49.708;18.568;2022-08-19T08:32:00;11.82;;;7.95;;
31347;SDS011;21711;49.708;18.568;2022-08-19T08:34:28;9.80;;;7.07;;
31347;SDS011;21711;49.708;18.568;2022-08-19T08:36:55;14.80;;;8.48;;
31347;SDS011;21711;49.708;18.568;2022-08-19T08:39:23;13.15;;;7.97;;
31347;SDS011;21711;49.708;18.568;2022-08-19T08:45:06;12.68;;;7.80;;
31347;SDS011;21711;49.708;18.568;2022-08-19T08:47:43;9.27;;;7.65;;
31347;SDS011;21711;49.708;18.568;2022-08-19T08:50:20;15.10;;;7.85;;
31347;SDS011;21711;49.708;18.568;2022-08-19T08:52:56;9.18;;;7.57;;
31347;SDS011;21711;49.708;18.568;2022-08-19T08:55:27;8.57;;;7.68;;
31347;SDS011;21711;49.708;18.568;2022-08-19T08:58:06;13.52;;;8.50;;
31347;SDS011;21711;49.708;18.568;2022-08-19T09:00:50;9.82;;;7.75;;
31347;SDS011;21711;49.708;18.568;2022-08-19T09:03:22;10.00;;;7.80;;
31347;SDS011;21711;49.708;18.568;2022-08-19T09:05:59;15.87;;;8.57;;
31347;SDS011;21711;49.708;18.568;2022-08-19T09:09:05;9.40;;;7.95;;
31347;SDS011;21711;49.708;18.568;2022-08-19T09:14:44;9.18;;;8.25;;
31347;SDS011;21711;49.708;18.568;2022-08-19T09:17:20;8.90;;;7.68;;
31347;SDS011;21711;49.708;18.568;2022-08-19T09:22:46;14.23;;;7.57;;
31347;SDS011;21711;49.708;18.568;2022-08-19T09:25:17;12.85;;;8.13;;
31347;SDS011;21711;49.708;18.568;2022-08-19T09:27:55;11.32;;;7.63;;
31347;SDS011;21711;49.708;18.568;2022-08-19T09:30:30;9.85;;;8.85;;
31347;SDS011;21711;49.708;18.568;2022-08-19T09:33:05;9.10;;;7.47;;
31347;SDS011;21711;49.708;18.568;2022-08-19T09:35:34;9.73;;;8.35;;
31347;SDS011;21711;49.708;18.568;2022-08-19T09:38:19;11.95;;;7.68;;
31347;SDS011;21711;49.708;18.568;2022-08-19T09:40:48;11.33;;;7.93;;
31347;SDS011;21711;49.708;18.568;2022-08-19T09:43:16;13.25;;;9.00;;
31347;SDS011;21711;49.708;18.568;2022-08-19T09:46:00;13.40;;;7.82;;
31347;SDS011;21711;49.708;18.568;2022-08-19T09:48:29;8.90;;;7.70;;
31347;SDS011;21711;49.708;18.568;2022-08-19T09:51:01;10.85;;;7.88;;
31347;SDS011;21711;49.708;18.568;2022-08-19T09:53:37;10.38;;;7.28;;
31347;SDS011;21711;49.708;18.568;2022-08-19T09:56:05;10.35;;;7.90;;
31347;SDS011;21711;49.708;18.568;2022-08-19T09:58:34;8.20;;;7.40;;
31347;SDS011;21711;49.708;18.568;2022-08-19T10:01:03;8.65;;;7.75;;
31347;SDS011;21711;49.708;18.568;2022-08-19T10:03:34;12.50;;;7.30;;
31347;SDS011;21711;49.708;18.568;2022-08-19T10:06:03;16.13;;;6.85;;
31347;SDS011;21711;49.708;18.568;2022-08-19T10:08:42;12.40;;;7.40;;
31347;SDS011;21711;49.708;18.568;2022-08-19T10:11:16;9.77;;;6.95;;
31347;SDS011;21711;49.708;18.568;2022-08-19T10:14:04;12.18;;;8.10;;
31347;SDS011;21711;49.708;18.568;2022-08-19T10:16:33;9.10;;;8.15;;
31347;SDS011;21711;49.708;18.568;2022-08-19T10:19:05;11.02;;;7.65;;
31347;SDS011;21711;49.708;18.568;2022-08-19T10:21:33;15.48;;;8.40;;
31347;SDS011;21711;49.708;18.568;2022-08-19T10:24:01;11.98;;;7.63;;
31347;SDS011;21711;49.708;18.568;2022-08-19T10:26:33;12.20;;;8.25;;
31347;SDS011;21711;49.708;18.568;2022-08-19T10:29:04;11.52;;;8.13;;
31347;SDS011;21711;49.708;18.568;2022-08-19T10:31:34;10.00;;;7.68;;
31347;SDS011;21711;49.708;18.568;2022-08-19T10:34:22;11.25;;;7.53;;
31347;SDS011;21711;49.708;18.568;2022-08-19T10:36:54;10.90;;;7.88;;
31347;SDS011;21711;49.708;18.568;2022-08-19T10:39:27;12.57;;;7.72;;
31347;SDS011;21711;49.708;18.568;2022-08-19T10:42:09;11.35;;;7.78;;
31347;SDS011;21711;49.708;18.568;2022-08-19T10:44:37;8.27;;;6.43;;
31347;SDS011;21711;49.708;18.568;2022-08-19T10:47:04;13.48;;;7.65;;
31347;SDS011;21711;49.708;18.568;2022-08-19T10:49:49;14.07;;;7.57;;
31347;SDS011;21711;49.708;18.568;2022-08-19T10:52:38;9.05;;;7.32;;
31347;SDS011;21711;49.708;18.568;2022-08-19T10:55:17;8.48;;;7.57;;
31347;SDS011;21711;49.708;18.568;2022-08-19T10:58:13;12.32;;;7.22;;
31347;SDS011;21711;49.708;18.568;2022-08-19T11:00:50;12.13;;;7.22;;
31347;SDS011;21711;49.708;18.568;2022-08-19T11:03:20;16.23;;;7.57;;
31347;SDS011;21711;49.708;18.568;2022-08-19T11:05:56;10.32;;;7.38;;
31347;SDS011;21711;49.708;18.568;2022-08-19T11:08:33;7.15;;;6.15;;
31347;SDS011;21711;49.708;18.568;2022-08-19T11:11:04;13.68;;;6.68;;
31347;SDS011;21711;49.708;18.568;2022-08-19T11:13:35;9.77;;;6.20;;
31347;SDS011;21711;49.708;18.568;2022-08-19T11:16:09;15.35;;;7.47;;
31347;SDS011;21711;49.708;18.568;2022-08-19T11:18:42;9.95;;;6.88;;
31347;SDS011;21711;49.708;18.568;2022-08-19T11:21:24;13.88;;;7.22;;
31347;SDS011;21711;49.708;18.568;2022-08-19T11:24:00;11.13;;;7.28;;
31347;SDS011;21711;49.708;18.568;2022-08-19T11:26:32;10.15;;;7.05;;
31347;SDS011;21711;49.708;18.568;2022-08-19T11:29:01;8.82;;;6.82;;
31347;SDS011;21711;49.708;18.568;2022-08-19T11:31:31;11.10;;;7.55;;
31347;SDS011;21711;49.708;18.568;2022-08-19T11:34:03;9.52;;;6.90;;
31347;SDS011;21711;49.708;18.568;2022-08-19T11:36:34;12.32;;;7.30;;
31347;SDS011;21711;49.708;18.568;2022-08-19T11:39:05;10.93;;;7.22;;
31347;SDS011;21711;49.708;18.568;2022-08-19T11:41:34;12.43;;;6.95;;
31347;SDS011;21711;49.708;18.568;2022-08-19T11:44:02;14.90;;;6.78;;
31347;SDS011;21711;49.708;18.568;2022-08-19T11:48:58;14.07;;;6.72;;
31347;SDS011;21711;49.708;18.568;2022-08-19T11:51:27;11.30;;;7.53;;
31347;SDS011;21711;49.708;18.568;2022-08-19T11:53:56;10.38;;;5.80;;
31347;SDS011;21711;49.708;18.568;2022-08-19T11:56:25;12.82;;;6.28;;
31347;SDS011;21711;49.708;18.568;2022-08-19T11:58:54;9.02;;;6.55;;
31347;SDS011;21711;49.708;18.568;2022-08-19T12:01:25;10.27;;;6.13;;
31347;SDS011;21711;49.708;18.568;2022-08-19T12:03:54;8.88;;;5.82;;
31347;SDS011;21711;49.708;18.568;2022-08-19T12:06:25;9.70;;;6.65;;
31347;SDS011;21711;49.708;18.568;2022-08-19T12:08:56;11.38;;;5.85;;
31347;SDS011;21711;49.708;18.568;2022-08-19T12:11:26;12.10;;;6.40;;
31347;SDS011;21711;49.708;18.568;2022-08-19T12:13:56;11.50;;;6.65;;
31347;SDS011;21711;49.708;18.568;2022-08-19T12:16:25;8.90;;;5.97;;
31347;SDS011;21711;49.708;18.568;2022-08-19T12:18:55;13.27;;;6.07;;
31347;SDS011;21711;49.708;18.568;2022-08-19T12:21:25;11.65;;;5.47;;
31347;SDS011;21711;49.708;18.568;2022-08-19T12:23:57;8.02;;;5.72;;
31347;SDS011;21711;49.708;18.568;2022-08-19T12:26:27;11.98;;;6.22;;
31347;SDS011;21711;49.708;18.568;2022-08-19T12:31:26;12.35;;;6.88;;
31347;SDS011;21711;49.708;18.568;2022-08-19T12:33:55;15.23;;;6.55;;
31347;SDS011;21711;49.708;18.568;2022-08-19T12:36:22;14.70;;;6.97;;
31347;SDS011;21711;49.708;18.568;2022-08-19T12:38:51;7.60;;;5.93;;
31347;SDS011;21711;49.708;18.568;2022-08-19T12:41:19;13.02;;;6.95;;
31347;SDS011;21711;49.708;18.568;2022-08-19T12:43:48;13.25;;;6.70;;
31347;SDS011;21711;49.708;18.568;2022-08-19T12:46:17;12.27;;;6.85;;
31347;SDS011;21711;49.708;18.568;2022-08-19T12:48:50;10.38;;;7.38;;
31347;SDS011;21711;49.708;18.568;2022-08-19T12:51:20;13.25;;;6.90;;
31347;SDS011;21711;49.708;18.568;2022-08-19T12:53:48;14.15;;;6.68;;
31347;SDS011;21711;49.708;18.568;2022-08-19T12:56:16;12.07;;;6.40;;
31347;SDS011;21711;49.708;18.568;2022-08-19T12:58:48;16.67;;;6.60;;
31347;SDS011;21711;49.708;18.568;2022-08-19T13:01:18;10.43;;;5.60;;
31347;SDS011;21711;49.708;18.568;2022-08-19T13:03:48;12.50;;;5.90;;
31347;SDS011;21711;49.708;18.568;2022-08-19T13:06:19;10.77;;;5.70;;
31347;SDS011;21711;49.708;18.568;2022-08-19T13:08:47;14.20;;;5.95;;
31347;SDS011;21711;49.708;18.568;2022-08-19T13:11:15;12.02;;;5.97;;
31347;SDS011;21711;49.708;18.568;2022-08-19T13:13:47;12.88;;;5.90;;
31347;SDS011;21711;49.708;18.568;2022-08-19T13:16:18;15.48;;;5.85;;
31347;SDS011;21711;49.708;18.568;2022-08-19T13:21:14;15.82;;;5.95;;
31347;SDS011;21711;49.708;18.568;2022-08-19T13:23:41;12.73;;;7.22;;
31347;SDS011;21711;49.708;18.568;2022-08-19T13:26:10;14.90;;;5.93;;
31347;SDS011;21711;49.708;18.568;2022-08-19T13:28:39;11.35;;;6.28;;
31347;SDS011;21711;49.708;18.568;2022-08-19T13:31:27;15.63;;;8.38;;
31347;SDS011;21711;49.708;18.568;2022-08-19T13:34:16;15.00;;;6.45;;
31347;SDS011;21711;49.708;18.568;2022-08-19T13:36:47;14.50;;;6.63;;
31347;SDS011;21711;49.708;18.568;2022-08-19T13:39:14;17.88;;;7.00;;
31347;SDS011;21711;49.708;18.568;2022-08-19T13:41:45;16.20;;;7.00;;
31347;SDS011;21711;49.708;18.568;2022-08-19T13:44:14;12.18;;;6.22;;
31347;SDS011;21711;49.708;18.568;2022-08-19T13:46:46;19.90;;;6.97;;
31347;SDS011;21711;49.708;18.568;2022-08-19T13:49:19;38.88;;;8.10;;
31347;SDS011;21711;49.708;18.568;2022-08-19T13:51:47;15.48;;;7.20;;
31347;SDS011;21711;49.708;18.568;2022-08-19T13:54:14;15.23;;;5.80;;
31347;SDS011;21711;49.708;18.568;2022-08-19T13:56:42;21.45;;;7.53;;
31347;SDS011;21711;49.708;18.568;2022-08-19T13:59:11;14.75;;;7.03;;
31347;SDS011;21711;49.708;18.568;2022-08-19T14:01:40;13.82;;;6.78;;
31347;SDS011;21711;49.708;18.568;2022-08-19T14:04:08;18.00;;;7.20;;
31347;SDS011;21711;49.708;18.568;2022-08-19T14:06:35;16.60;;;6.57;;
31347;SDS011;21711;49.708;18.568;2022-08-19T14:09:03;15.20;;;6.82;;
31347;SDS011;21711;49.708;18.568;2022-08-19T14:11:32;14.63;;;7.05;;
31347;SDS011;21711;49.708;18.568;2022-08-19T14:13:59;23.65;;;7.47;;
31347;SDS011;21711;49.708;18.568;2022-08-19T14:16:26;11.98;;;7.00;;
31347;SDS011;21711;49.708;18.568;2022-08-19T14:18:54;17.10;;;6.80;;
31347;SDS011;21711;49.708;18.568;2022-08-19T14:21:22;13.93;;;6.88;;
31347;SDS011;21711;49.708;18.568;2022-08-19T14:23:51;20.05;;;6.93;;
31347;SDS011;21711;49.708;18.568;2022-08-19T14:26:20;15.02;;;6.40;;
31347;SDS011;21711;49.708;18.568;2022-08-19T14:28:50;23.80;;;8.10;;
31347;SDS011;21711;49.708;18.568;2022-08-19T14:31:18;16.13;;;6.50;;
31347;SDS011;21711;49.708;18.568;2022-08-19T14:33:48;13.80;;;7.40;;
31347;SDS011;21711;49.708;18.568;2022-08-19T14:36:17;18.73;;;7.28;;
31347;SDS011;21711;49.708;18.568;2022-08-19T14:38:46;23.30;;;7.30;;
31347;SDS011;21711;49.708;18.568;2022-08-19T14:41:20;17.17;;;8.18;;
31347;SDS011;21711;49.708;18.568;2022-08-19T14:43:51;12.88;;;6.90;;
31347;SDS011;21711;49.708;18.568;2022-08-19T14:46:20;14.23;;;6.93;;
31347;SDS011;21711;49.708;18.568;2022-08-19T14:48:53;13.18;;;6.20;;
31347;SDS011;21711;49.708;18.568;2022-08-19T14:51:22;18.98;;;7.90;;
31347;SDS011;21711;49.708;18.568;2022-08-19T14:53:51;18.58;;;7.32;;
31347;SDS011;21711;49.708;18.568;2022-08-19T14:56:20;17.17;;;7.68;;
31347;SDS011;21711;49.708;18.568;2022-08-19T14:58:50;17.13;;;7.50;;
31347;SDS011;21711;49.708;18.568;2022-08-19T15:01:19;11.57;;;7.57;;
31347;SDS011;21711;49.708;18.568;2022-08-19T15:03:49;22.60;;;8.38;;
31347;SDS011;21711;49.708;18.568;2022-08-19T15:06:19;14.32;;;8.40;;
31347;SDS011;21711;49.708;18.568;2022-08-19T15:08:49;11.27;;;6.97;;